createdAt,value
2019-02-17T00:00:37.590Z,98.30
2019-02-17T00:03:26.975Z,98.40
2019-02-17T00:06:08.735Z,98.40
2019-02-17T00:08:58.254Z,98.50
2019-02-17T00:11:40.464Z,98.40
2019-02-17T00:14:43.966Z,98.50
2019-02-17T00:17:14.341Z,98.50
2019-02-17T00:20:03.965Z,98.70
2019-02-17T00:22:49.072Z,98.50
2019-02-17T00:25:40.617Z,98.60
2019-02-17T00:28:23.254Z,98.70
2019-02-17T00:31:12.844Z,98.80
2019-02-17T00:33:55.138Z,98.50
2019-02-17T00:36:44.824Z,98.90
2019-02-17T00:39:27.580Z,98.50
2019-02-17T00:45:18.672Z,98.50
2019-02-17T00:48:08.049Z,98.40
2019-02-17T00:50:50.764Z,98.40
2019-02-17T00:53:40.325Z,98.80
2019-02-17T00:56:22.116Z,98.70
2019-02-17T00:59:11.952Z,98.60
2019-02-17T01:01:56.568Z,99.00
2019-02-17T01:04:46.108Z,98.70
2019-02-17T01:07:28.497Z,98.60
2019-02-17T01:10:18.319Z,98.80
2019-02-17T01:13:02.511Z,98.70
2019-02-17T01:15:51.790Z,98.80
2019-02-17T01:18:35.215Z,98.90
2019-02-17T01:21:38.901Z,98.80
2019-02-17T01:24:11.441Z,98.70
2019-02-17T01:29:42.600Z,99.00
2019-02-17T01:32:32.270Z,98.90
2019-02-17T01:35:14.629Z,98.80
2019-02-17T01:38:06.136Z,99.00
2019-02-17T01:40:49.827Z,99.20
2019-02-17T01:43:39.558Z,99.10
2019-02-17T01:46:21.761Z,99.20
2019-02-17T01:49:11.683Z,99.10
2019-02-17T01:51:54.087Z,99.50
2019-02-17T01:54:43.482Z,99.40
2019-02-17T01:57:28.031Z,99.20
2019-02-17T02:00:17.445Z,99.30
2019-02-17T02:02:59.727Z,99.30
2019-02-17T02:05:49.401Z,99.30
2019-02-17T02:08:31.629Z,99.30
2019-02-17T02:14:11.045Z,99.20
2019-02-17T02:17:00.393Z,99.30
2019-02-17T02:19:42.366Z,99.30
2019-02-17T02:25:35.071Z,99.40
2019-02-17T02:28:24.720Z,99.50
2019-02-17T02:30:55.306Z,99.60
2019-02-17T02:33:44.945Z,99.50
2019-02-17T02:36:26.913Z,99.60
2019-02-17T02:42:17.322Z,99.90
2019-02-17T02:45:07.872Z,99.80
2019-02-17T02:47:50.679Z,99.50
2019-02-17T02:50:33.813Z,99.80
2019-02-17T02:56:10.696Z,99.60
2019-02-17T02:59:00.055Z,99.40
2019-02-17T03:01:42.034Z,99.70
2019-02-17T03:04:31.923Z,99.50
2019-02-17T03:07:17.001Z,99.70
2019-02-17T03:10:07.044Z,99.90
2019-02-17T03:12:49.143Z,99.80
2019-02-17T03:18:26.672Z,99.90
2019-02-17T03:21:18.504Z,99.90
2019-02-17T03:24:08.543Z,99.90
2019-02-17T03:26:57.938Z,99.80
2019-02-17T03:29:39.504Z,99.90
2019-02-17T03:35:17.517Z,99.70
2019-02-17T03:40:55.183Z,99.80
2019-02-17T03:46:32.304Z,99.60
2019-02-17T03:52:09.302Z,99.90
2019-02-17T03:57:59.905Z,99.60
2019-02-17T04:00:49.595Z,99.70
2019-02-17T04:03:31.434Z,99.70
2019-02-17T04:08:56.642Z,99.90
2019-02-17T04:11:46.292Z,99.80
2019-02-17T04:14:35.668Z,99.80
2019-02-17T04:17:17.449Z,99.90
2019-02-17T04:20:06.930Z,99.90
2019-02-17T04:22:37.165Z,99.90
2019-02-17T04:25:07.392Z,99.90
2019-02-17T04:30:44.757Z,99.90
2019-02-17T04:33:34.129Z,99.90
2019-02-17T04:36:04.665Z,99.90
2019-02-17T04:41:41.722Z,99.90
2019-02-17T04:44:31.274Z,99.90
2019-02-17T04:47:13.822Z,99.90
2019-02-17T04:52:53.398Z,99.90
2019-02-17T04:58:45.489Z,99.80
2019-02-17T05:01:48.431Z,99.70
2019-02-17T05:04:18.161Z,99.60
2019-02-17T05:07:07.540Z,99.60
2019-02-17T05:09:49.121Z,99.50
2019-02-17T05:12:38.459Z,99.50
2019-02-17T05:15:21.085Z,99.50
2019-02-17T05:18:10.502Z,99.50
2019-02-17T05:20:54.854Z,99.50
2019-02-17T05:23:44.418Z,99.40
2019-02-17T05:29:08.741Z,99.90
2019-02-17T05:31:58.170Z,99.60
2019-02-17T05:34:40.111Z,99.60
2019-02-17T05:40:18.761Z,99.60
2019-02-17T05:43:08.691Z,99.50
2019-02-17T05:45:51.017Z,99.50
2019-02-17T05:48:40.641Z,99.40
2019-02-17T05:54:04.165Z,99.40
2019-02-17T05:56:53.820Z,99.40
2019-02-17T05:59:35.435Z,99.50
2019-02-17T06:05:12.321Z,99.50
2019-02-17T06:08:02.099Z,99.80
2019-02-17T06:10:43.744Z,99.90
2019-02-17T06:13:33.445Z,99.90
2019-02-17T06:16:15.639Z,99.90
2019-02-17T06:19:07.386Z,99.80
2019-02-17T06:21:49.830Z,99.80
2019-02-17T06:24:39.769Z,99.90
2019-02-17T06:27:22.089Z,99.90
2019-02-17T06:32:58.510Z,99.80
2019-02-17T06:38:35.348Z,99.80
2019-02-17T06:41:25.014Z,99.70
2019-02-17T06:44:07.179Z,99.80
2019-02-17T06:49:47.822Z,99.70
2019-02-17T06:52:29.512Z,99.80
2019-02-17T06:55:37.921Z,99.80
2019-02-17T06:58:08.078Z,99.90
2019-02-17T07:00:59.389Z,99.90
2019-02-17T07:03:41.836Z,99.80
2019-02-17T07:06:34.766Z,99.90
2019-02-17T07:09:17.408Z,99.90
2019-02-17T07:12:06.951Z,99.80
2019-02-17T07:14:38.458Z,99.90
2019-02-17T07:17:28.321Z,99.90
2019-02-17T07:20:10.178Z,99.90
2019-02-17T07:22:59.606Z,99.80
2019-02-17T07:25:42.595Z,99.80
2019-02-17T07:31:22.691Z,99.70
2019-02-17T07:34:25.829Z,99.80
2019-02-17T07:36:55.640Z,99.70
2019-02-17T07:42:45.713Z,99.80
2019-02-17T07:45:35.035Z,99.90
2019-02-17T07:48:17.539Z,99.70
2019-02-17T07:59:32.386Z,99.50
2019-02-17T08:02:22.113Z,99.40
2019-02-17T08:08:12.451Z,99.70
2019-02-17T08:11:04.334Z,99.90
2019-02-17T08:13:45.597Z,99.40
2019-02-17T08:16:35.195Z,99.40
2019-02-17T08:19:16.870Z,99.30
2019-02-17T08:22:06.321Z,99.40
2019-02-17T08:24:48.767Z,99.20
2019-02-17T08:30:25.067Z,98.90
2019-02-17T08:33:14.673Z,98.60
2019-02-17T08:35:56.679Z,98.30
2019-02-17T08:41:33.574Z,98.10
2019-02-17T08:47:10.739Z,97.70
2019-02-17T08:52:48.117Z,96.60
2019-02-17T08:55:39.775Z,96.70
2019-02-17T08:58:22.121Z,96.60
2019-02-17T09:00:53.087Z,96.30
2019-02-17T09:06:56.111Z,95.60
2019-02-17T09:09:38.857Z,95.20
2019-02-17T09:12:28.266Z,94.50
2019-02-17T09:15:10.203Z,94.70
2019-02-17T09:20:53.803Z,94.30
2019-02-17T09:23:24.112Z,93.90
2019-02-17T09:26:13.789Z,93.40
2019-02-17T09:32:04.083Z,94.40
2019-02-17T09:37:54.742Z,92.20
2019-02-17T09:43:46.724Z,91.30
2019-02-17T09:46:36.044Z,93.30
2019-02-17T09:49:18.287Z,91.60
2019-02-17T09:52:08.028Z,92.10
2019-02-17T09:55:11.158Z,92.30
2019-02-17T09:57:41.256Z,91.80
2019-02-17T10:03:17.659Z,91.00
2019-02-17T10:06:07.086Z,91.10
2019-02-17T10:08:49.828Z,91.60
2019-02-17T10:14:41.035Z,90.90
2019-02-17T10:20:31.662Z,90.60
2019-02-17T10:23:21.060Z,90.50
2019-02-17T10:26:02.909Z,90.10
2019-02-17T10:28:52.345Z,89.50
2019-02-17T10:31:34.134Z,90.20
2019-02-17T10:34:23.569Z,88.50
2019-02-17T10:37:06.074Z,89.60
2019-02-17T10:39:36.403Z,89.90
2019-02-17T10:42:25.796Z,89.10
2019-02-17T10:44:56.301Z,87.30
2019-02-17T10:47:46.084Z,87.60
2019-02-17T10:50:38.082Z,87.50
2019-02-17T10:53:20.656Z,85.90
2019-02-17T10:56:12.073Z,83.80
2019-02-17T10:58:55.685Z,80.90
2019-02-17T11:01:45.007Z,83.10
2019-02-17T11:04:27.384Z,82.50
2019-02-17T11:07:16.740Z,80.00
2019-02-17T11:09:59.400Z,82.70
2019-02-17T11:12:51.476Z,82.90
2019-02-17T11:15:34.231Z,84.10
2019-02-17T11:21:11.628Z,81.10
2019-02-17T11:27:01.899Z,80.90
2019-02-17T11:29:51.262Z,80.60
2019-02-17T11:32:33.310Z,81.20
2019-02-17T11:38:25.560Z,79.40
2019-02-17T11:40:55.861Z,80.30
2019-02-17T11:43:45.616Z,79.40
2019-02-17T11:46:35.305Z,79.30
2019-02-17T11:49:17.277Z,77.70
2019-02-17T11:55:02.099Z,79.90
2019-02-17T11:57:46.114Z,77.40
2019-02-17T12:00:36.335Z,77.40
2019-02-17T12:03:22.182Z,76.60
2019-02-17T12:09:54.918Z,80.00
2019-02-17T12:12:40.613Z,79.90
2019-02-17T12:15:34.472Z,79.00
2019-02-17T12:18:20.895Z,77.30
2019-02-17T12:27:38.888Z,78.00
2019-02-17T12:30:18.589Z,75.70
2019-02-17T12:36:01.223Z,77.30
2019-02-17T12:38:51.822Z,75.50
2019-02-17T12:41:34.506Z,78.30
2019-02-17T12:44:37.743Z,78.60
2019-02-17T12:47:12.273Z,78.40
2019-02-17T12:49:56.141Z,75.10
2019-02-17T12:52:46.845Z,73.30
2019-02-17T12:55:27.101Z,73.70
2019-02-17T12:58:29.655Z,75.10
2019-02-17T13:01:13.402Z,73.00
2019-02-17T13:07:04.910Z,72.40
2019-02-17T13:09:54.263Z,70.90
2019-02-17T13:12:35.945Z,71.90
2019-02-17T13:15:38.740Z,71.90
2019-02-17T13:18:09.765Z,70.40
2019-02-17T13:24:02.079Z,72.60
2019-02-17T13:26:32.429Z,72.60
2019-02-17T13:32:17.097Z,72.60
2019-02-17T13:34:59.478Z,73.20
2019-02-17T13:37:48.872Z,73.40
2019-02-17T13:40:31.195Z,73.90
2019-02-17T13:43:20.565Z,70.50
2019-02-17T13:46:02.907Z,72.40
2019-02-17T13:48:52.638Z,72.50
2019-02-17T13:51:34.260Z,73.20
2019-02-17T13:54:43.058Z,74.50
2019-02-17T13:57:25.949Z,73.00
2019-02-17T14:00:15.807Z,74.20
2019-02-17T14:02:58.227Z,73.20
2019-02-17T14:05:47.666Z,72.00
2019-02-17T14:11:38.853Z,73.70
2019-02-17T14:14:09.194Z,72.80
2019-02-17T14:16:58.673Z,73.40
2019-02-17T14:19:48.716Z,73.80
2019-02-17T14:22:30.675Z,72.80
2019-02-17T14:28:21.284Z,70.60
2019-02-17T14:31:10.640Z,71.50
2019-02-17T14:33:58.527Z,73.50
2019-02-17T14:39:44.355Z,71.30
2019-02-17T14:42:14.622Z,72.50
2019-02-17T14:47:52.004Z,71.50
2019-02-17T14:50:33.610Z,74.20
2019-02-17T14:53:04.149Z,74.70
2019-02-17T14:58:50.871Z,75.70
2019-02-17T15:01:33.294Z,75.50
2019-02-17T15:04:16.020Z,75.40
2019-02-17T15:10:08.775Z,77.00
2019-02-17T15:15:52.180Z,79.00
2019-02-17T15:18:41.546Z,78.80
2019-02-17T15:21:23.549Z,78.60
2019-02-17T15:27:03.987Z,79.50
2019-02-17T15:29:53.399Z,81.00
2019-02-17T15:32:38.182Z,81.20
2019-02-17T15:35:27.835Z,81.30
2019-02-17T15:38:09.997Z,80.60
2019-02-17T15:44:00.479Z,82.10
2019-02-17T15:46:49.781Z,82.30
2019-02-17T15:49:32.148Z,82.80
2019-02-17T15:52:16.679Z,82.10
2019-02-17T15:55:07.864Z,81.50
2019-02-17T16:00:44.789Z,82.60
2019-02-17T16:06:22.884Z,82.00
2019-02-17T16:09:12.858Z,82.60
2019-02-17T16:11:55.231Z,82.50
2019-02-17T16:14:45.327Z,82.10
2019-02-17T16:17:26.968Z,82.10
2019-02-17T16:20:16.575Z,82.00
2019-02-17T16:22:59.552Z,83.10
2019-02-17T16:25:49.443Z,83.80
2019-02-17T16:28:31.886Z,84.20
2019-02-17T16:31:22.337Z,85.10
2019-02-17T16:34:04.097Z,85.10
2019-02-17T16:36:53.792Z,85.10
2019-02-17T16:39:41.552Z,85.50
2019-02-17T16:42:28.606Z,85.60
2019-02-17T16:48:19.227Z,87.50
2019-02-17T16:51:08.822Z,87.80
2019-02-17T16:53:39.173Z,87.70
2019-02-17T16:56:28.570Z,88.40
2019-02-17T16:58:58.823Z,88.50
2019-02-17T17:04:48.505Z,88.70
2019-02-17T17:07:26.928Z,90.00
2019-02-17T17:10:16.279Z,90.10
2019-02-17T17:12:58.504Z,90.30
2019-02-17T17:18:45.217Z,90.60
2019-02-17T17:21:27.231Z,90.70
2019-02-17T17:24:16.673Z,91.00
2019-02-17T17:26:58.695Z,91.10
2019-02-17T17:29:48.149Z,91.90
2019-02-17T17:32:31.674Z,91.80
2019-02-17T17:38:08.747Z,91.90
2019-02-17T17:43:50.278Z,92.00
2019-02-17T17:49:27.726Z,91.90
2019-02-17T17:52:17.205Z,91.90
2019-02-17T17:54:59.433Z,92.10
2019-02-17T17:57:48.811Z,92.30
2019-02-17T18:00:32.542Z,92.30
2019-02-17T18:06:10.704Z,93.30
2019-02-17T18:11:35.590Z,92.90
2019-02-17T18:14:25.025Z,93.00
2019-02-17T18:17:14.381Z,92.90
2019-02-17T18:19:57.078Z,92.80
2019-02-17T18:26:14.257Z,92.50
2019-02-17T18:31:58.946Z,92.40
2019-02-17T18:34:40.798Z,92.50
2019-02-17T18:37:30.361Z,93.00
2019-02-17T18:40:13.104Z,93.00
2019-02-17T18:43:02.687Z,93.00
2019-02-17T18:45:45.063Z,92.90
2019-02-17T18:48:36.758Z,93.20
2019-02-17T18:51:18.910Z,93.30
2019-02-17T18:54:08.678Z,93.30
2019-02-17T18:56:50.669Z,93.40
2019-02-17T19:04:53.025Z,93.70
2019-02-17T19:07:23.302Z,93.60
2019-02-17T19:10:13.167Z,93.70
2019-02-17T19:15:56.533Z,93.90
2019-02-17T19:18:46.187Z,93.70
2019-02-17T19:21:16.546Z,93.70
2019-02-17T19:27:01.234Z,93.80
2019-02-17T19:29:43.561Z,93.90
2019-02-17T19:32:26.564Z,94.10
2019-02-17T19:38:10.969Z,94.30
2019-02-17T19:41:01.601Z,94.40
2019-02-17T19:43:44.977Z,94.30
2019-02-17T19:49:36.291Z,94.40
2019-02-17T19:55:26.703Z,94.50
2019-02-17T20:00:58.095Z,94.40
2019-02-17T20:04:06.601Z,94.40
2019-02-17T20:06:48.447Z,94.40
2019-02-17T20:12:40.462Z,94.60
2019-02-17T20:18:34.424Z,94.70
2019-02-17T20:21:23.811Z,94.80
2019-02-17T20:24:07.964Z,94.80
2019-02-17T20:26:58.112Z,94.70
2019-02-17T20:29:28.460Z,94.80
2019-02-17T20:32:17.812Z,94.90
2019-02-17T20:35:00.640Z,95.00
2019-02-17T20:40:37.900Z,95.20
2019-02-17T20:43:27.307Z,95.30
2019-02-17T20:46:09.678Z,95.30
2019-02-17T20:48:59.092Z,95.50
2019-02-17T20:51:29.660Z,95.30
2019-02-17T20:53:59.941Z,95.30
2019-02-17T20:56:46.200Z,95.20
2019-02-17T20:59:35.509Z,95.20
2019-02-17T21:02:17.775Z,95.20
2019-02-17T21:05:26.594Z,95.40
2019-02-17T21:08:09.070Z,95.40
2019-02-17T21:14:00.441Z,95.50
2019-02-17T21:16:50.054Z,95.50
2019-02-17T21:19:32.151Z,95.50
2019-02-17T21:25:22.743Z,95.60
2019-02-17T21:27:52.997Z,95.80
2019-02-17T21:30:23.616Z,95.70
2019-02-17T21:35:49.100Z,95.70
2019-02-17T21:38:38.742Z,95.70
2019-02-17T21:41:28.103Z,95.60
2019-02-17T21:44:10.681Z,95.60
2019-02-17T21:47:00.327Z,95.80
2019-02-17T21:49:42.293Z,95.70
2019-02-17T21:52:26.166Z,95.70
2019-02-17T21:55:08.034Z,95.80
2019-02-17T21:57:57.452Z,95.80
2019-02-17T22:00:39.964Z,95.80
2019-02-17T22:03:29.316Z,96.20
2019-02-17T22:06:11.667Z,95.80
2019-02-17T22:09:01.290Z,96.00
2019-02-17T22:11:42.906Z,96.10
2019-02-17T22:14:32.764Z,96.00
2019-02-17T22:17:14.825Z,96.10
2019-02-17T22:20:05.221Z,96.20
2019-02-17T22:22:47.384Z,96.20
2019-02-17T22:28:37.561Z,96.10
2019-02-17T22:31:27.186Z,96.20
2019-02-17T22:34:09.011Z,96.10
2019-02-17T22:40:00.326Z,96.30
2019-02-17T22:45:53.100Z,96.30
2019-02-17T22:48:23.362Z,96.30
2019-02-17T22:51:12.769Z,96.40
2019-02-17T22:53:55.337Z,96.40
2019-02-17T22:57:04.206Z,96.40
2019-02-17T22:59:46.619Z,96.30
2019-02-17T23:02:36.333Z,96.40
2019-02-17T23:05:25.964Z,96.40
2019-02-17T23:11:27.623Z,96.40
2019-02-17T23:14:17.202Z,96.40
2019-02-17T23:16:59.989Z,96.40
2019-02-17T23:19:49.839Z,96.40
2019-02-17T23:22:33.471Z,96.40
2019-02-17T23:25:23.297Z,96.40
2019-02-17T23:28:05.446Z,96.50
2019-02-17T23:33:57.353Z,96.60
2019-02-17T23:39:48.341Z,96.50
2019-02-17T23:42:37.677Z,96.50
2019-02-17T23:45:08.891Z,96.60
2019-02-17T23:47:58.515Z,96.70
2019-02-17T23:50:40.453Z,96.60
2019-02-17T23:53:26.457Z,96.70
2019-02-17T23:56:09.022Z,96.70
